Time;durP1;ratioP1;P1;durP2;ratioP2;P2;SDS_P1;SDS_P2;PMS_P1;PMS_P2;Temp;Humidity;BMP_temperature;BMP_pressure;BME280_temperature;BME280_humidity;BME280_pressure;Samples;Min_cycle;Max_cycle;Signal;HPM_P1;HPM_P2
2022/05/08 00:02:13;;;;;;;12.25;9.43;;;13.20;99.90;;;;;;5100702;28;20054;-42
2022/05/08 00:04:39;;;;;;;12.43;8.52;;;13.10;99.90;;;;;;5087383;28;20035;-41
2022/05/08 00:07:05;;;;;;;11.27;8.18;;;13.10;99.90;;;;;;5101423;28;20027;-42
2022/05/08 00:09:30;;;;;;;15.65;9.10;;;13.10;99.90;;;;;;5088117;28;20032;-42
2022/05/08 00:11:56;;;;;;;13.65;8.63;;;13.00;99.90;;;;;;5097762;28;20016;-42
2022/05/08 00:14:21;;;;;;;12.90;7.82;;;13.00;99.90;;;;;;5090969;28;20484;-42
2022/05/08 00:16:47;;;;;;;13.25;8.23;;;12.90;99.90;;;;;;5094857;28;20383;-42
2022/05/08 00:19:12;;;;;;;10.68;7.60;;;12.90;99.90;;;;;;5092906;28;20047;-42
2022/05/08 00:21:39;;;;;;;9.93;7.82;;;12.90;99.90;;;;;;5093189;28;20121;-43
2022/05/08 00:24:05;;;;;;;12.43;8.02;;;12.90;99.90;;;;;;5096030;28;20593;-42
2022/05/08 00:26:30;;;;;;;11.23;7.60;;;12.90;99.90;;;;;;5089730;28;20020;-42
2022/05/08 00:28:56;;;;;;;12.75;8.40;;;12.90;99.90;;;;;;5099176;28;20028;-42
2022/05/08 00:31:22;;;;;;;11.93;7.97;;;12.80;99.90;;;;;;5089522;28;20045;-42
2022/05/08 00:33:47;;;;;;;14.40;7.95;;;12.80;99.90;;;;;;5098677;28;20059;-43
2022/05/08 00:36:13;;;;;;;11.95;7.78;;;12.70;99.90;;;;;;5088848;28;20680;-43
2022/05/08 00:38:38;;;;;;;14.80;7.70;;;12.70;99.90;;;;;;5099638;28;20123;-43
2022/05/08 00:41:06;;;;;;;11.98;7.40;;;12.70;99.90;;;;;;5087370;28;20471;-42
2022/05/08 00:43:32;;;;;;;12.38;6.90;;;12.60;99.90;;;;;;5100027;28;20035;-42
2022/05/08 00:45:59;;;;;;;9.80;6.97;;;12.60;99.90;;;;;;5087525;28;20028;-42
2022/05/08 00:48:25;;;;;;;9.85;6.95;;;12.70;99.90;;;;;;5098764;28;20031;-42
2022/05/08 00:50:51;;;;;;;9.15;6.25;;;12.70;99.90;;;;;;5087891;28;20024;-43
2022/05/08 00:53:17;;;;;;;10.25;6.70;;;12.60;99.90;;;;;;5096477;28;20031;-42
2022/05/08 00:55:43;;;;;;;13.75;7.18;;;12.60;99.90;;;;;;5098463;28;20395;-43
2022/05/08 00:58:09;;;;;;;11.38;6.47;;;12.60;99.90;;;;;;5100057;28;20065;-42
2022/05/08 01:00:35;;;;;;;12.90;5.88;;;12.60;99.90;;;;;;5101514;28;20043;-42
2022/05/08 01:03:00;;;;;;;12.35;5.65;;;12.60;99.90;;;;;;5102992;28;20031;-42
2022/05/08 01:05:26;;;;;;;9.45;5.38;;;12.50;99.90;;;;;;5098752;28;20016;-41
2022/05/08 01:07:52;;;;;;;10.80;5.55;;;12.60;99.90;;;;;;5104776;28;20027;-40
2022/05/08 01:10:17;;;;;;;11.95;6.05;;;12.50;99.90;;;;;;5096084;28;20028;-42
2022/05/08 01:12:44;;;;;;;12.95;6.03;;;12.50;99.90;;;;;;5105921;28;20040;-42
2022/05/08 01:15:10;;;;;;;10.13;5.22;;;12.40;99.90;;;;;;5095615;28;20692;-41
2022/05/08 01:17:35;;;;;;;14.85;5.95;;;12.40;99.90;;;;;;5105841;28;20035;-40
2022/05/08 01:20:01;;;;;;;12.93;5.25;;;12.30;99.90;;;;;;5095517;28;20489;-41
2022/05/08 01:22:26;;;;;;;11.60;5.53;;;12.30;99.90;;;;;;5106000;28;20031;-41
2022/05/08 01:24:52;;;;;;;12.73;5.10;;;12.30;99.90;;;;;;5094399;28;20134;-42
2022/05/08 01:27:17;;;;;;;9.77;4.90;;;12.20;99.90;;;;;;5107446;28;20027;-42
2022/05/08 01:29:44;;;;;;;10.98;5.40;;;12.20;99.90;;;;;;5094615;28;20038;-41
2022/05/08 01:32:10;;;;;;;9.88;4.88;;;12.20;99.90;;;;;;5106952;28;20063;-42
2022/05/08 01:34:35;;;;;;;10.82;4.97;;;12.20;99.90;;;;;;5097056;28;20109;-42
2022/05/08 01:37:01;;;;;;;9.18;4.57;;;12.20;99.90;;;;;;5103578;28;20034;-42
2022/05/08 01:39:26;;;;;;;11.77;4.43;;;12.20;99.90;;;;;;5099760;28;20036;-42
2022/05/08 01:41:52;;;;;;;13.50;5.15;;;12.20;99.90;;;;;;5100469;28;20487;-43
2022/05/08 01:44:17;;;;;;;9.90;4.22;;;12.20;99.90;;;;;;5102025;28;20023;-42
2022/05/08 01:46:42;;;;;;;10.95;4.35;;;12.20;99.90;;;;;;5098061;28;20031;-42
2022/05/08 01:49:08;;;;;;;15.18;4.55;;;12.20;99.90;;;;;;5105426;28;20035;-41
2022/05/08 01:51:33;;;;;;;14.95;6.15;;;12.20;99.90;;;;;;5094519;28;20534;-41
2022/05/08 01:54:00;;;;;;;11.27;4.30;;;12.10;99.90;;;;;;5104999;28;20030;-41
2022/05/08 01:56:26;;;;;;;16.13;4.90;;;12.10;99.90;;;;;;5103079;28;20106;-42
2022/05/08 01:58:52;;;;;;;17.02;5.05;;;12.00;99.90;;;;;;5105795;28;20046;-42
2022/05/08 02:01:19;;;;;;;18.52;4.85;;;12.00;99.90;;;;;;5098026;28;20052;-42
2022/05/08 02:03:45;;;;;;;15.20;4.40;;;11.90;99.90;;;;;;5085985;28;20480;-40
2022/05/08 02:06:10;;;;;;;10.55;4.07;;;11.90;99.90;;;;;;5098156;28;20047;-42
2022/05/08 02:08:36;;;;;;;15.80;4.00;;;11.80;99.90;;;;;;5085338;28;20055;-42
2022/05/08 02:11:01;;;;;;;14.25;4.28;;;11.80;99.90;;;;;;5096301;28;20058;-43
2022/05/08 02:13:27;;;;;;;10.88;4.03;;;11.80;99.90;;;;;;5087201;28;20107;-43
2022/05/08 02:15:52;;;;;;;10.85;3.72;;;11.80;99.90;;;;;;5093946;28;20417;-41
2022/05/08 02:18:18;;;;;;;12.30;3.60;;;11.80;99.90;;;;;;5089016;28;20056;-41
2022/05/08 02:20:43;;;;;;;11.32;3.92;;;11.80;99.90;;;;;;5091626;28;20031;-41
2022/05/08 02:23:09;;;;;;;15.23;3.60;;;11.70;99.90;;;;;;5092657;28;20077;-41
2022/05/08 02:25:36;;;;;;;12.27;3.40;;;11.80;99.90;;;;;;5087517;28;20727;-42
2022/05/08 02:28:02;;;;;;;14.13;3.72;;;11.80;99.90;;;;;;5095591;28;20121;-42
2022/05/08 02:30:28;;;;;;;11.35;3.20;;;11.70;99.90;;;;;;5086377;28;20139;-41
2022/05/08 02:32:53;;;;;;;16.13;3.55;;;11.70;99.90;;;;;;5096823;28;20024;-43
2022/05/08 02:35:23;;;;;;;15.55;3.97;;;11.70;99.90;;;;;;5086957;28;20133;-43
2022/05/08 02:37:52;;;;;;;15.00;3.35;;;11.60;99.90;;;;;;5097404;28;20127;-42
2022/05/08 02:40:18;;;;;;;9.65;3.08;;;11.60;99.90;;;;;;5084894;28;20154;-42
2022/05/08 02:42:44;;;;;;;15.90;3.95;;;11.60;99.90;;;;;;5097519;28;20295;-43
2022/05/08 02:45:11;;;;;;;14.23;3.30;;;11.50;99.90;;;;;;5085886;28;20032;-42
2022/05/08 02:47:38;;;;;;;16.83;3.90;;;11.60;99.90;;;;;;5097360;28;20023;-41
2022/05/08 02:50:05;;;;;;;12.30;3.35;;;11.50;99.90;;;;;;5086009;28;20024;-42
2022/05/08 02:52:31;;;;;;;17.10;4.15;;;11.50;99.90;;;;;;5097351;28;20742;-42
2022/05/08 02:54:57;;;;;;;12.98;3.88;;;11.40;99.90;;;;;;5085633;28;20028;-42
2022/05/08 03:00:08;;;;;;;13.88;4.22;;;11.40;99.90;;;;;;5086131;28;20534;-42
2022/05/08 03:02:34;;;;;;;11.18;3.20;;;11.30;99.90;;;;;;5093908;28;20019;-42
2022/05/08 03:05:01;;;;;;;10.15;3.00;;;11.30;99.90;;;;;;5089242;28;20099;-42
2022/05/08 03:07:27;;;;;;;14.38;3.30;;;11.30;99.90;;;;;;5091113;28;20061;-42
2022/05/08 03:09:52;;;;;;;12.52;3.40;;;11.30;99.90;;;;;;5090812;28;20496;-42
2022/05/08 03:12:18;;;;;;;10.77;3.20;;;11.30;99.90;;;;;;5090015;28;20133;-42
2022/05/08 03:14:43;;;;;;;14.57;3.22;;;11.30;99.90;;;;;;5092671;28;20249;-42
2022/05/08 03:17:09;;;;;;;14.07;3.45;;;11.30;99.90;;;;;;5087244;28;20032;-42
2022/05/08 03:19:34;;;;;;;11.50;3.28;;;11.20;99.90;;;;;;5095519;28;20047;-44
2022/05/08 03:22:00;;;;;;;9.82;3.67;;;11.20;99.90;;;;;;5086146;28;20758;-43
2022/05/08 03:24:28;;;;;;;13.25;3.80;;;11.20;99.90;;;;;;5096559;28;20047;-43
2022/05/08 03:26:53;;;;;;;12.82;3.10;;;11.10;99.90;;;;;;5085789;28;20088;-42
2022/05/08 03:29:19;;;;;;;12.75;2.75;;;11.10;99.90;;;;;;5096405;28;20032;-42
2022/05/08 03:31:44;;;;;;;10.15;2.88;;;11.10;99.90;;;;;;5085695;28;20097;-41
2022/05/08 03:34:10;;;;;;;15.55;3.20;;;11.10;99.90;;;;;;5101882;28;20030;-42
2022/05/08 03:36:35;;;;;;;17.08;3.90;;;11.10;99.90;;;;;;5087649;28;20395;-42
2022/05/08 03:39:01;;;;;;;18.23;4.38;;;11.10;99.90;;;;;;5100736;28;20070;-42
2022/05/08 03:41:26;;;;;;;17.35;3.70;;;11.00;99.90;;;;;;5089410;28;20056;-43
2022/05/08 03:43:52;;;;;;;15.10;3.38;;;10.90;99.90;;;;;;5097209;28;20114;-43
2022/05/08 03:46:17;;;;;;;13.98;3.20;;;10.90;99.90;;;;;;5092296;28;20065;-41
2022/05/08 03:48:43;;;;;;;12.50;3.13;;;10.90;99.90;;;;;;5094901;28;20059;-42
2022/05/08 03:51:09;;;;;;;15.77;3.42;;;10.90;99.90;;;;;;5094171;28;20020;-43
2022/05/08 03:53:34;;;;;;;11.40;2.88;;;10.90;99.90;;;;;;5091408;28;20047;-43
2022/05/08 03:56:00;;;;;;;11.77;3.17;;;10.80;99.90;;;;;;5107168;28;20032;-42
2022/05/08 03:58:26;;;;;;;15.10;3.22;;;10.80;99.90;;;;;;5106093;28;20039;-41
2022/05/08 04:00:52;;;;;;;15.15;3.15;;;10.80;99.90;;;;;;5097446;28;20035;-41
2022/05/08 04:03:17;;;;;;;17.48;3.55;;;10.80;99.90;;;;;;5106910;28;20039;-43
2022/05/08 04:05:43;;;;;;;12.55;3.00;;;10.80;99.90;;;;;;5096139;28;20030;-42
2022/05/08 04:08:08;;;;;;;11.48;3.50;;;10.70;99.90;;;;;;5108721;28;20420;-42
2022/05/08 04:10:34;;;;;;;6.65;2.35;;;10.70;99.90;;;;;;5094524;28;20127;-43
2022/05/08 04:13:00;;;;;;;9.30;2.63;;;10.70;99.90;;;;;;5108920;28;20673;-43
2022/05/08 04:18:10;;;;;;;12.65;2.97;;;10.70;99.90;;;;;;5108234;28;20560;-42
2022/05/08 04:20:36;;;;;;;14.88;2.97;;;10.60;99.90;;;;;;5094454;28;20103;-42
2022/05/08 04:25:46;;;;;;;13.52;3.40;;;10.50;99.90;;;;;;5095202;28;20088;-41
2022/05/08 04:28:12;;;;;;;14.93;3.47;;;10.40;99.90;;;;;;5109140;28;20469;-42
2022/05/08 04:30:37;;;;;;;11.82;2.83;;;10.40;99.90;;;;;;5097220;28;20471;-42
2022/05/08 04:33:03;;;;;;;13.02;2.80;;;10.40;99.90;;;;;;5105979;28;20027;-42
2022/05/08 04:35:29;;;;;;;9.77;2.88;;;10.40;99.90;;;;;;5099802;28;20023;-42
2022/05/08 04:37:54;;;;;;;13.68;3.35;;;10.30;99.90;;;;;;5103803;28;20151;-42
2022/05/08 04:40:20;;;;;;;15.82;3.45;;;10.30;99.90;;;;;;5102472;28;20414;-41
2022/05/08 04:42:45;;;;;;;12.55;2.88;;;10.30;99.90;;;;;;5100778;28;20486;-42
2022/05/08 04:45:11;;;;;;;15.43;4.00;;;10.20;99.90;;;;;;5105098;28;20031;-42
2022/05/08 04:47:36;;;;;;;14.02;3.67;;;10.20;99.90;;;;;;5096789;28;20053;-42
2022/05/08 04:50:02;;;;;;;15.35;3.60;;;10.20;99.90;;;;;;5106255;28;20020;-42
2022/05/08 04:52:28;;;;;;;10.93;3.13;;;10.20;99.90;;;;;;5095900;28;20030;-43
2022/05/08 04:54:53;;;;;;;16.02;3.38;;;10.10;99.90;;;;;;5106558;28;20032;-43
2022/05/08 04:57:19;;;;;;;15.82;4.32;;;10.10;99.90;;;;;;5095904;28;20110;-42
2022/05/08 04:59:44;;;;;;;9.68;2.63;;;10.10;99.90;;;;;;5107435;28;20040;-42
2022/05/08 05:02:10;;;;;;;9.13;2.85;;;10.10;99.90;;;;;;5094898;28;20153;-42
2022/05/08 05:04:35;;;;;;;10.65;3.13;;;10.10;99.90;;;;;;5107250;28;20028;-41
2022/05/08 05:07:01;;;;;;;11.73;3.55;;;10.10;99.90;;;;;;5095056;28;20146;-41
2022/05/08 05:09:27;;;;;;;11.57;2.72;;;10.10;99.90;;;;;;5106505;28;20054;-42
2022/05/08 05:11:53;;;;;;;9.70;2.75;;;10.10;99.90;;;;;;5098426;28;20062;-42
2022/05/08 05:14:18;;;;;;;8.90;2.38;;;10.10;99.90;;;;;;5103820;28;20360;-44
2022/05/08 05:16:44;;;;;;;15.80;3.35;;;10.10;99.90;;;;;;5100840;28;20032;-41
2022/05/08 05:19:09;;;;;;;12.88;2.80;;;10.20;99.90;;;;;;5101869;28;20593;-42
2022/05/08 05:21:35;;;;;;;14.35;3.10;;;10.10;99.90;;;;;;5101501;28;20035;-43
2022/05/08 05:24:01;;;;;;;15.18;3.53;;;10.20;99.90;;;;;;5099433;28;20392;-43
2022/05/08 05:26:27;;;;;;;14.18;3.33;;;10.10;99.90;;;;;;5105618;28;20136;-42
2022/05/08 05:28:52;;;;;;;9.45;2.50;;;10.20;99.90;;;;;;5095992;28;20499;-43
2022/05/08 05:31:18;;;;;;;14.05;3.30;;;10.20;99.90;;;;;;5105503;28;20019;-43
2022/05/08 05:33:46;;;;;;;14.93;3.47;;;10.20;99.90;;;;;;5095153;28;20035;-41
2022/05/08 05:36:12;;;;;;;11.32;3.20;;;10.20;99.90;;;;;;5106224;28;20034;-40
2022/05/08 05:38:38;;;;;;;13.43;3.35;;;10.20;99.90;;;;;;5095205;28;20093;-41
2022/05/08 05:41:03;;;;;;;8.32;2.58;;;10.20;99.90;;;;;;5107378;28;20729;-41
2022/05/08 05:43:29;;;;;;;16.23;4.57;;;10.30;99.90;;;;;;5093245;28;20503;-42
2022/05/08 05:48:39;;;;;;;15.15;3.60;;;10.30;99.90;;;;;;5093621;28;20043;-40
2022/05/08 05:51:05;;;;;;;16.23;4.07;;;10.30;99.90;;;;;;5106363;28;20019;-41
2022/05/08 05:53:31;;;;;;;13.45;3.38;;;10.30;99.90;;;;;;5094328;28;20038;-42
2022/05/08 05:55:58;;;;;;;12.82;3.92;;;10.40;99.90;;;;;;5097694;28;20050;-42
2022/05/08 05:58:23;;;;;;;11.35;3.42;;;10.40;99.90;;;;;;5093829;28;20506;-42
2022/05/08 06:00:49;;;;;;;15.23;3.95;;;10.40;99.90;;;;;;5089747;28;20051;-41
2022/05/08 06:03:15;;;;;;;10.88;3.17;;;10.40;99.90;;;;;;5091821;28;20038;-43
2022/05/08 06:05:41;;;;;;;11.50;3.30;;;10.40;99.90;;;;;;5092185;28;20028;-43
2022/05/08 06:08:06;;;;;;;12.30;3.80;;;10.40;99.90;;;;;;5089928;28;20036;-42
2022/05/08 06:10:32;;;;;;;12.73;3.60;;;10.50;99.90;;;;;;5093431;28;20070;-41
2022/05/08 06:12:58;;;;;;;13.50;4.38;;;10.50;99.90;;;;;;5087530;28;20032;-41
2022/05/08 06:15:24;;;;;;;12.02;3.50;;;10.50;99.90;;;;;;5096639;28;20012;-42
2022/05/08 06:17:49;;;;;;;15.10;3.92;;;10.50;99.90;;;;;;5086732;28;20034;-42
2022/05/08 06:20:15;;;;;;;11.70;3.55;;;10.60;99.90;;;;;;5097121;28;20020;-42
2022/05/08 06:22:40;;;;;;;13.27;3.25;;;10.60;99.90;;;;;;5085455;28;20024;-39
2022/05/08 06:25:06;;;;;;;15.45;3.50;;;10.60;99.90;;;;;;5097834;28;20753;-42
2022/05/08 06:27:32;;;;;;;10.82;3.17;;;10.70;99.90;;;;;;5085496;28;20031;-39
2022/05/08 06:29:59;;;;;;;17.75;3.50;;;10.70;99.90;;;;;;5098132;28;20156;-42
2022/05/08 06:32:24;;;;;;;12.13;3.20;;;10.80;99.90;;;;;;5085346;28;20031;-42
2022/05/08 06:34:50;;;;;;;12.50;3.55;;;10.80;99.90;;;;;;5096523;28;20020;-42
2022/05/08 06:37:15;;;;;;;11.07;2.80;;;10.80;99.90;;;;;;5087413;28;20578;-42
2022/05/08 06:39:41;;;;;;;10.65;2.88;;;10.90;99.80;;;;;;5093178;28;20035;-46
2022/05/08 06:42:07;;;;;;;10.20;3.40;;;10.90;99.70;;;;;;5089867;28;20031;-40
2022/05/08 06:44:32;;;;;;;13.07;2.83;;;11.00;99.60;;;;;;5090861;28;20073;-43
2022/05/08 06:46:59;;;;;;;11.80;3.35;;;11.00;99.50;;;;;;5091841;28;20055;-43
2022/05/08 06:49:24;;;;;;;17.52;3.30;;;11.00;99.40;;;;;;5088657;28;20035;-40
2022/05/08 06:51:50;;;;;;;13.55;3.10;;;11.00;99.30;;;;;;5095937;28;20020;-43
2022/05/08 06:54:15;;;;;;;10.80;2.60;;;11.10;99.30;;;;;;5085947;28;20420;-42
2022/05/08 06:56:41;;;;;;;10.23;2.70;;;11.10;99.30;;;;;;5104363;28;20908;-42
2022/05/08 07:01:52;;;;;;;9.20;2.53;;;11.30;99.00;;;;;;5094873;28;20050;-43
2022/05/08 07:04:17;;;;;;;11.68;3.03;;;11.30;98.90;;;;;;5104022;28;20153;-41
2022/05/08 07:06:43;;;;;;;10.93;2.70;;;11.30;98.70;;;;;;5094760;28;20135;-41
2022/05/08 07:09:08;;;;;;;9.82;2.67;;;11.40;98.20;;;;;;5110084;28;20038;-41
2022/05/08 07:11:35;;;;;;;9.15;2.50;;;11.40;98.20;;;;;;5096185;28;20024;-41
2022/05/08 07:14:01;;;;;;;9.32;2.17;;;11.40;98.30;;;;;;5110157;28;20103;-42
2022/05/08 07:16:27;;;;;;;10.65;2.40;;;11.40;98.20;;;;;;5095978;28;20137;-42
2022/05/08 07:18:53;;;;;;;11.57;2.90;;;11.40;98.20;;;;;;5109900;28;20070;-41
2022/05/08 07:21:19;;;;;;;5.30;2.28;;;11.50;98.00;;;;;;5098075;28;20020;-42
2022/05/08 07:23:45;;;;;;;12.05;3.00;;;11.50;97.80;;;;;;5106875;28;20035;-44
2022/05/08 07:26:11;;;;;;;8.68;2.65;;;11.50;97.60;;;;;;5101854;28;20049;-41
2022/05/08 07:28:37;;;;;;;8.00;2.67;;;11.50;97.40;;;;;;5103596;28;20031;-42
2022/05/08 07:31:03;;;;;;;14.35;2.88;;;11.50;97.50;;;;;;5104394;28;20440;-40
2022/05/08 07:33:35;;;;;;;10.35;2.80;;;11.60;97.20;;;;;;5102314;28;20034;-43
2022/05/08 07:36:19;;;;;;;8.47;2.53;;;11.60;97.10;;;;;;5105250;28;20015;-42
2022/05/08 07:38:46;;;;;;;11.10;2.83;;;11.70;97.20;;;;;;5102884;28;20394;-42
2022/05/08 07:41:17;;;;;;;6.70;2.45;;;11.70;97.00;;;;;;5099368;28;20027;-43
2022/05/08 07:43:45;;;;;;;7.80;2.30;;;11.70;97.10;;;;;;5092307;28;20111;-41
2022/05/08 07:46:11;;;;;;;10.02;2.78;;;11.80;97.00;;;;;;5090001;28;20027;-42
2022/05/08 07:48:37;;;;;;;9.68;2.22;;;11.80;97.00;;;;;;5096618;28;20051;-40
2022/05/08 07:51:02;;;;;;;7.93;2.58;;;11.90;97.00;;;;;;5089521;28;20521;-41
2022/05/08 07:53:30;;;;;;;7.30;2.05;;;11.90;96.80;;;;;;5098816;28;20036;-43
2022/05/08 07:55:57;;;;;;;8.57;2.20;;;12.00;96.80;;;;;;5089772;28;20060;-41
2022/05/08 07:58:23;;;;;;;13.02;2.67;;;12.00;96.80;;;;;;5099066;28;20028;-42
2022/05/08 08:00:53;;;;;;;9.65;2.40;;;12.00;96.70;;;;;;5087950;28;20044;-44
2022/05/08 08:03:19;;;;;;;7.07;2.10;;;12.10;96.80;;;;;;5099747;28;20039;-41
2022/05/08 08:05:45;;;;;;;7.63;2.33;;;12.10;96.80;;;;;;5087984;28;20063;-41
2022/05/08 08:08:10;;;;;;;7.88;1.95;;;12.20;96.60;;;;;;5100942;28;20741;-40
2022/05/08 08:10:36;;;;;;;6.95;2.25;;;12.20;96.40;;;;;;5086732;28;20046;-42
2022/05/08 08:13:01;;;;;;;5.05;1.85;;;12.30;96.40;;;;;;5097764;28;20039;-43
2022/05/08 08:15:27;;;;;;;10.95;2.92;;;12.30;96.40;;;;;;5090067;28;20020;-41
2022/05/08 08:17:53;;;;;;;8.60;2.50;;;12.40;96.10;;;;;;5094622;28;20044;-41
2022/05/08 08:20:18;;;;;;;8.43;2.55;;;12.40;96.10;;;;;;5092705;28;20024;-42
2022/05/08 08:22:45;;;;;;;8.43;2.50;;;12.50;96.10;;;;;;5091985;28;20154;-37
2022/05/08 08:25:10;;;;;;;8.20;2.72;;;12.50;95.80;;;;;;5094644;28;20058;-42
2022/05/08 08:27:36;;;;;;;8.20;2.30;;;12.60;95.80;;;;;;5089041;28;20384;-43
2022/05/08 08:30:03;;;;;;;6.93;2.00;;;12.60;95.40;;;;;;5097738;28;20471;-40
2022/05/08 08:32:31;;;;;;;7.03;2.03;;;12.60;95.00;;;;;;5088001;28;20023;-42
2022/05/08 08:34:57;;;;;;;5.57;2.00;;;12.60;95.20;;;;;;5099284;28;20020;-41
2022/05/08 08:37:23;;;;;;;7.03;2.20;;;12.60;95.10;;;;;;5089021;28;20028;-45
2022/05/08 08:39:49;;;;;;;7.05;2.53;;;12.70;95.00;;;;;;5098986;28;20040;-43
2022/05/08 08:42:28;;;;;;;5.65;2.10;;;12.70;94.90;;;;;;5087523;28;20036;-42
2022/05/08 08:47:56;;;;;;;8.75;2.17;;;12.80;95.00;;;;;;5106636;28;20042;-39
2022/05/08 08:50:25;;;;;;;6.55;1.58;;;12.90;94.90;;;;;;5089988;28;20471;-42
2022/05/08 08:52:51;;;;;;;6.47;1.95;;;12.90;94.80;;;;;;5086350;28;20094;-41
2022/05/08 08:55:17;;;;;;;10.38;2.22;;;12.90;94.40;;;;;;5076340;28;20069;-43
2022/05/08 08:57:46;;;;;;;3.22;1.65;;;13.00;94.50;;;;;;5067769;28;20755;-43
2022/05/08 09:00:12;;;;;;;5.38;2.00;;;13.00;94.60;;;;;;5079651;28;20042;-41
2022/05/08 09:02:39;;;;;;;8.07;2.10;;;13.10;94.60;;;;;;5078691;28;20127;-42
2022/05/08 09:05:09;;;;;;;4.88;1.85;;;13.20;94.40;;;;;;5090712;28;20044;-43
2022/05/08 09:07:48;;;;;;;4.20;1.80;;;13.20;94.50;;;;;;5076169;28;20028;-40
2022/05/08 09:10:20;;;;;;;5.75;1.58;;;13.30;94.50;;;;;;5093992;28;20093;-46
2022/05/08 09:13:07;;;;;;;3.53;1.83;;;13.30;94.40;;;;;;5107733;28;20112;-46
2022/05/08 09:15:37;;;;;;;6.38;2.00;;;13.40;94.30;;;;;;5094178;28;20101;-42
2022/05/08 09:18:07;;;;;;;8.43;2.70;;;13.40;93.80;;;;;;5083939;28;20040;-43
2022/05/08 09:20:39;;;;;;;5.80;2.20;;;13.40;93.80;;;;;;5031955;28;20528;-43
2022/05/08 09:23:21;;;;;;;10.27;2.55;;;13.40;93.40;;;;;;4945343;28;20037;-43
2022/05/08 09:25:51;;;;;;;5.22;2.67;;;13.40;93.40;;;;;;5094906;28;20031;-41
2022/05/08 09:28:24;;;;;;;4.00;1.77;;;13.40;93.30;;;;;;5084997;28;20024;-42
2022/05/08 09:30:55;;;;;;;;;;;13.40;93.50;;;;;;5097580;28;20027;-40
2022/05/08 09:33:25;;;;;;;4.07;1.80;;;13.50;93.00;;;;;;5065263;28;19977;-41
2022/05/08 09:35:51;;;;;;;6.45;2.00;;;13.50;93.00;;;;;;5090909;28;20471;-39
2022/05/08 09:38:16;;;;;;;7.57;2.53;;;13.60;92.60;;;;;;5087490;28;20036;-41
2022/05/08 09:40:42;;;;;;;4.65;1.80;;;13.60;92.80;;;;;;5093862;28;20098;-41
2022/05/08 09:43:28;;;;;;;4.07;1.73;;;13.60;92.80;;;;;;5089685;28;20024;-42
2022/05/08 09:46:00;;;;;;;5.50;2.05;;;13.60;93.00;;;;;;5093008;28;20554;-41
2022/05/08 09:48:28;;;;;;;7.53;2.30;;;13.70;92.90;;;;;;5088025;28;20976;-42
2022/05/08 09:50:58;;;;;;;12.77;2.60;;;13.80;92.90;;;;;;5093028;28;20482;-42
2022/05/08 09:53:25;;;;;;;4.85;1.92;;;13.80;92.90;;;;;;5090931;28;20028;-42
2022/05/08 09:55:54;;;;;;;9.75;2.72;;;13.90;93.00;;;;;;5087779;28;20027;-40
2022/05/08 09:58:21;;;;;;;7.65;2.47;;;14.00;91.60;;;;;;5085165;28;20510;-42
2022/05/08 10:00:56;;;;;;;5.20;1.83;;;14.00;91.50;;;;;;5093054;28;20023;-42
2022/05/08 10:03:23;;;;;;;8.30;2.88;;;14.00;91.30;;;;;;5097125;28;20047;-43
2022/05/08 10:05:49;;;;;;;4.20;2.00;;;14.00;90.50;;;;;;5103649;28;20063;-41
2022/05/08 10:08:19;;;;;;;3.80;1.83;;;14.00;90.80;;;;;;5094878;28;20028;-41
2022/05/08 10:14:07;;;;;;;7.28;1.98;;;14.10;90.90;;;;;;5086279;28;20439;-42
2022/05/08 10:16:43;;;;;;;4.97;1.95;;;14.20;90.80;;;;;;5099985;28;20016;-41
2022/05/08 10:19:18;;;;;;;7.47;2.13;;;14.20;90.80;;;;;;5099107;28;20034;-40
2022/05/08 10:22:12;;;;;;;5.65;1.90;;;14.30;90.70;;;;;;5099423;28;20335;-40
2022/05/08 10:24:43;;;;;;;6.57;2.47;;;14.30;90.60;;;;;;5100054;28;20032;-38
2022/05/08 10:27:15;;;;;;;6.25;2.28;;;14.30;90.20;;;;;;5097337;28;20016;-42
2022/05/08 10:29:50;;;;;;;7.35;2.05;;;14.40;90.00;;;;;;5100755;28;20051;-42
2022/05/08 10:32:28;;;;;;;7.30;2.00;;;14.40;89.70;;;;;;5095748;28;20124;-42
2022/05/08 10:35:11;;;;;;;6.55;2.00;;;14.50;89.60;;;;;;5101430;28;20124;-41
2022/05/08 10:37:41;;;;;;;5.70;2.70;;;14.50;90.00;;;;;;5095882;28;20138;-41
2022/05/08 10:40:21;;;;;;;6.72;2.30;;;14.60;89.80;;;;;;5102535;28;20027;-42
2022/05/08 10:42:47;;;;;;;6.28;2.40;;;14.60;89.30;;;;;;5097392;28;20116;-41
2022/05/08 10:45:36;;;;;;;8.73;2.38;;;14.70;88.80;;;;;;5100352;28;20055;-42
2022/05/08 10:48:16;;;;;;;6.57;2.20;;;14.70;88.90;;;;;;5096642;28;20032;-41
2022/05/08 10:50:50;;;;;;;4.32;2.28;;;14.70;89.00;;;;;;5102953;28;20062;-41
2022/05/08 10:53:32;;;;;;;4.25;1.63;;;14.80;89.20;;;;;;5095099;28;20114;-41
2022/05/08 10:56:06;;;;;;;5.75;2.63;;;14.90;89.00;;;;;;5100492;28;20062;-39
2022/05/08 10:58:34;;;;;;;6.63;2.00;;;14.90;88.20;;;;;;5093540;28;20371;-41
2022/05/08 11:01:03;;;;;;;5.60;2.00;;;14.90;88.20;;;;;;5087345;28;20016;-41
2022/05/08 11:03:29;;;;;;;3.28;1.70;;;15.00;88.40;;;;;;5092136;28;20031;-40
2022/05/08 11:05:56;;;;;;;6.95;1.85;;;15.10;87.00;;;;;;5088650;28;20024;-41
2022/05/08 11:08:31;;;;;;;3.80;1.75;;;15.10;86.80;;;;;;5090392;28;20048;-41
2022/05/08 11:11:08;;;;;;;4.07;1.88;;;15.10;87.00;;;;;;5090361;28;20383;-41
2022/05/08 11:13:46;;;;;;;6.45;1.95;;;15.10;86.80;;;;;;5089084;28;20822;-41
2022/05/08 11:16:36;;;;;;;5.63;1.88;;;15.20;86.50;;;;;;5089616;28;20032;-41
2022/05/08 11:19:03;;;;;;;4.55;2.00;;;15.20;86.30;;;;;;5092406;28;20483;-41
2022/05/08 11:21:29;;;;;;;4.60;1.80;;;15.30;86.30;;;;;;5086898;28;20028;-42
2022/05/08 11:23:55;;;;;;;3.25;1.40;;;15.30;86.10;;;;;;5090623;28;20028;-42
2022/05/08 11:26:34;;;;;;;4.90;1.80;;;15.40;85.90;;;;;;5090447;28;20020;-41
2022/05/08 11:29:00;;;;;;;5.20;1.58;;;15.40;85.60;;;;;;5089230;28;20023;-42
2022/05/08 11:31:28;;;;;;;4.03;1.45;;;15.40;85.90;;;;;;5091100;28;20470;-39
2022/05/08 11:36:39;;;;;;;5.22;1.33;;;15.50;85.80;;;;;;5090849;28;20067;-40
2022/05/08 11:39:12;;;;;;;4.97;1.67;;;15.60;85.50;;;;;;5086818;28;20068;-41
2022/05/08 11:41:51;;;;;;;5.63;1.50;;;15.60;84.70;;;;;;5091448;28;20028;-43
2022/05/08 11:44:16;;;;;;;3.80;1.42;;;15.70;84.70;;;;;;5087367;28;20043;-42
2022/05/08 11:46:47;;;;;;;4.93;1.85;;;15.70;84.60;;;;;;5092792;28;20024;-42
2022/05/08 11:49:30;;;;;;;4.93;1.42;;;15.80;84.00;;;;;;5083785;28;20028;-44
2022/05/08 11:51:57;;;;;;;5.95;1.90;;;15.90;82.70;;;;;;5086783;28;20054;-42
2022/05/08 11:54:58;;;;;;;7.18;1.70;;;15.90;83.00;;;;;;5105463;28;20024;-42
2022/05/08 11:57:24;;;;;;;5.10;2.00;;;15.90;82.90;;;;;;5058187;28;20146;-44
2022/05/08 12:00:05;;;;;;;4.10;1.60;;;16.00;82.70;;;;;;5090746;28;20123;-42
2022/05/08 12:02:39;;;;;;;2.63;1.38;;;16.00;81.90;;;;;;5092521;28;20043;-41
2022/05/08 12:05:05;;;;;;;2.80;1.33;;;16.00;81.60;;;;;;5091924;28;20963;-42
2022/05/08 12:07:40;;;;;;;3.78;1.80;;;16.10;81.80;;;;;;5095306;28;20111;-43
2022/05/08 12:10:07;;;;;;;2.88;1.45;;;16.20;81.30;;;;;;5089875;28;20027;-43
2022/05/08 12:12:35;;;;;;;4.85;1.77;;;16.20;81.00;;;;;;5095973;28;20056;-40
2022/05/08 12:15:02;;;;;;;5.72;1.38;;;16.30;81.60;;;;;;5088059;28;20030;-42
2022/05/08 12:17:50;;;;;;;4.45;1.77;;;16.30;81.50;;;;;;5097496;28;20101;-41
2022/05/08 12:20:33;;;;;;;4.28;1.60;;;16.40;81.40;;;;;;5088253;28;20032;-41
2022/05/08 12:23:00;;;;;;;3.15;1.35;;;16.40;79.80;;;;;;5095295;28;20044;-44
2022/05/08 12:25:26;;;;;;;4.50;1.58;;;16.40;80.60;;;;;;5087695;28;20470;-41
2022/05/08 12:27:52;;;;;;;5.13;1.50;;;16.40;80.50;;;;;;5085084;28;20399;-44
2022/05/08 12:30:18;;;;;;;3.45;1.70;;;16.40;80.10;;;;;;5104678;28;20458;-43
2022/05/08 12:32:43;;;;;;;2.55;1.38;;;16.40;79.40;;;;;;5095842;28;20035;-43
2022/05/08 12:35:09;;;;;;;4.00;1.27;;;16.50;79.30;;;;;;5107533;28;20027;-43
2022/05/08 12:37:37;;;;;;;6.05;1.50;;;16.50;79.60;;;;;;5093286;28;20080;-42
2022/05/08 12:40:04;;;;;;;4.20;1.38;;;16.50;78.90;;;;;;5107384;28;20091;-40
2022/05/08 12:42:29;;;;;;;5.03;1.40;;;16.60;79.30;;;;;;5094002;28;20043;-42
2022/05/08 12:44:55;;;;;;;3.72;1.35;;;16.70;78.60;;;;;;5107289;28;20390;-42
2022/05/08 12:47:20;;;;;;;3.92;1.40;;;16.70;77.50;;;;;;5094999;28;20503;-42
2022/05/08 12:49:48;;;;;;;3.67;1.30;;;16.80;78.80;;;;;;5106092;28;20023;-37
2022/05/08 12:52:13;;;;;;;3.47;1.30;;;16.80;77.60;;;;;;5096472;28;20028;-42
2022/05/08 12:54:39;;;;;;;3.15;1.45;;;16.90;77.60;;;;;;5102653;28;20031;-42
2022/05/08 12:57:07;;;;;;;3.75;1.05;;;16.90;77.30;;;;;;5098827;28;20149;-41
2022/05/08 12:59:50;;;;;;;4.65;1.30;;;16.90;76.80;;;;;;5099439;28;20471;-41
2022/05/08 13:02:18;;;;;;;2.63;1.55;;;16.90;77.30;;;;;;5099424;28;20043;-43
2022/05/08 13:04:45;;;;;;;2.38;1.20;;;17.00;76.90;;;;;;5099078;28;20701;-42
2022/05/08 13:07:11;;;;;;;2.17;1.00;;;17.00;76.70;;;;;;5101700;28;20055;-40
2022/05/08 13:09:38;;;;;;;2.80;1.20;;;17.10;75.40;;;;;;5097817;28;20039;-42